This is the latest recevied weather packets stored in our database for station/object NK7E-2. If no packets are shown the sender has not sent any weather packets the latest 10 day(s).
| Time | Temp. | Humidity | Pressure | Rain* | Wind** | Luminosity | Snow |
|---|---|---|---|---|---|---|---|
| 1777615516 | 17.78° C | 49% | 1019.3 hPa | 0 mm | - | - | - |
| 1777614916 | 17.78° C | 49% | 1019.2 hPa | 0 mm | - | - | - |
| 1777614316 | 18.33° C | 48% | 1019.4 hPa | 0 mm | - | - | - |
| 1777613716 | 18.89° C | 48% | 1019.3 hPa | 0 mm | - | - | - |
| 1777613116 | 18.89° C | 48% | 1018.7 hPa | 0 mm | - | - | - |
| 1777612516 | 18.33° C | 50% | 1018.7 hPa | 0 mm | - | - | - |
| 1777611916 | 18.33° C | 52% | 1018.6 hPa | 0 mm | - | - | - |
| 1777611316 | 18.33° C | 55% | 1018.5 hPa | 0 mm | - | - | - |
| 1777610716 | 18.89° C | 50% | 1018.4 hPa | 0 mm | - | - | - |
| 1777610116 | 18.33° C | 52% | 1018.2 hPa | 0 mm | - | - | - |
| 1777609516 | 18.33° C | 55% | 1018 hPa | 0 mm | - | - | - |
| 1777608916 | 18.33° C | 56% | 1018.2 hPa | 0 mm | - | - | - |
| 1777608316 | 18.33° C | 56% | 1018 hPa | 0 mm | - | - | - |
| 1777607716 | 18.33° C | 57% | 1018 hPa | 0 mm | - | - | - |
| 1777607116 | 18.33° C | 57% | 1017.7 hPa | 0 mm | - | - | - |
| 1777606516 | 18.89° C | 56% | 1017.4 hPa | 0 mm | - | - | - |
| 1777605916 | 18.89° C | 53% | 1017.5 hPa | 0 mm | - | - | - |
| 1777605316 | 19.44° C | 54% | 1017 hPa | 0 mm | - | - | - |
| 1777604716 | 20° C | 51% | 1016.9 hPa | 0 mm | - | - | - |
| 1777604116 | 20.56° C | 47% | 1016.6 hPa | 0 mm | - | - | - |
| 1777603516 | 20.56° C | 47% | 1016.6 hPa | 0 mm | - | - | - |
| 1777602916 | 21.11° C | 44% | 1016.6 hPa | 0 mm | - | - | - |
| 1777602316 | 21.11° C | 45% | 1015.9 hPa | 0 mm | - | - | - |
| 1777601716 | 21.67° C | 44% | 1015.8 hPa | 0 mm | - | - | - |
| 1777601116 | 21.67° C | 42% | 1015.2 hPa | 0 mm | - | - | - |
* Rain latest hour (hover to see other rain measurements)
** Current wind speed in m/s (hover to see current wind gust speed)